sensor_id;sensor_type;location;lat;lon;timestamp;temperature;humidity
5172;DHT22;2605;49.770;9.868;2022-12-20T00:00:22;0.30;99.90
5172;DHT22;2605;49.770;9.868;2022-12-20T00:02:47;0.40;99.90
5172;DHT22;2605;49.770;9.868;2022-12-20T00:05:13;0.50;99.90
5172;DHT22;2605;49.770;9.868;2022-12-20T00:07:39;0.50;99.90
5172;DHT22;2605;49.770;9.868;2022-12-20T00:10:05;0.60;99.90
5172;DHT22;2605;49.770;9.868;2022-12-20T00:12:31;0.70;99.90
5172;DHT22;2605;49.770;9.868;2022-12-20T00:14:56;0.80;99.90
5172;DHT22;2605;49.770;9.868;2022-12-20T00:17:22;0.90;99.90
5172;DHT22;2605;49.770;9.868;2022-12-20T00:19:48;0.90;99.90
5172;DHT22;2605;49.770;9.868;2022-12-20T00:22:13;0.90;99.90
5172;DHT22;2605;49.770;9.868;2022-12-20T00:24:39;1.00;99.90
5172;DHT22;2605;49.770;9.868;2022-12-20T00:27:04;1.00;99.90
5172;DHT22;2605;49.770;9.868;2022-12-20T00:29:30;1.00;99.90
5172;DHT22;2605;49.770;9.868;2022-12-20T00:31:55;1.00;99.90
5172;DHT22;2605;49.770;9.868;2022-12-20T00:34:21;1.10;99.90
5172;DHT22;2605;49.770;9.868;2022-12-20T00:36:46;1.10;99.90
5172;DHT22;2605;49.770;9.868;2022-12-20T00:39:12;1.10;99.90
5172;DHT22;2605;49.770;9.868;2022-12-20T00:41:37;1.20;99.90
5172;DHT22;2605;49.770;9.868;2022-12-20T00:44:03;1.20;99.90
5172;DHT22;2605;49.770;9.868;2022-12-20T00:46:29;1.30;99.90
5172;DHT22;2605;49.770;9.868;2022-12-20T00:48:55;1.20;99.90
5172;DHT22;2605;49.770;9.868;2022-12-20T00:51:24;1.20;99.90
5172;DHT22;2605;49.770;9.868;2022-12-20T00:53:50;1.20;99.90
5172;DHT22;2605;49.770;9.868;2022-12-20T00:56:16;1.20;99.90
5172;DHT22;2605;49.770;9.868;2022-12-20T00:58:43;1.20;99.90
5172;DHT22;2605;49.770;9.868;2022-12-20T01:01:35;1.10;99.90
5172;DHT22;2605;49.770;9.868;2022-12-20T01:04:01;1.20;99.90
5172;DHT22;2605;49.770;9.868;2022-12-20T01:06:27;1.20;99.90
5172;DHT22;2605;49.770;9.868;2022-12-20T01:08:53;1.20;99.90
5172;DHT22;2605;49.770;9.868;2022-12-20T01:11:22;1.20;99.90
5172;DHT22;2605;49.770;9.868;2022-12-20T01:13:50;1.30;99.90
5172;DHT22;2605;49.770;9.868;2022-12-20T01:16:20;1.30;99.90
5172;DHT22;2605;49.770;9.868;2022-12-20T01:18:46;1.30;99.90
5172;DHT22;2605;49.770;9.868;2022-12-20T01:21:13;1.20;99.90
5172;DHT22;2605;49.770;9.868;2022-12-20T01:23:40;1.30;99.90
5172;DHT22;2605;49.770;9.868;2022-12-20T01:26:08;1.30;99.90
5172;DHT22;2605;49.770;9.868;2022-12-20T01:28:37;1.30;99.90
5172;DHT22;2605;49.770;9.868;2022-12-20T01:31:10;1.30;99.90
5172;DHT22;2605;49.770;9.868;2022-12-20T01:33:35;1.20;99.90
5172;DHT22;2605;49.770;9.868;2022-12-20T01:36:04;1.20;99.90
5172;DHT22;2605;49.770;9.868;2022-12-20T01:38:30;1.20;99.90
5172;DHT22;2605;49.770;9.868;2022-12-20T01:40:57;1.20;99.90
5172;DHT22;2605;49.770;9.868;2022-12-20T01:43:23;1.30;99.90
5172;DHT22;2605;49.770;9.868;2022-12-20T01:45:50;1.30;99.90
5172;DHT22;2605;49.770;9.868;2022-12-20T01:48:18;1.40;99.90
5172;DHT22;2605;49.770;9.868;2022-12-20T01:50:46;1.40;99.90
5172;DHT22;2605;49.770;9.868;2022-12-20T01:53:13;1.40;99.90
5172;DHT22;2605;49.770;9.868;2022-12-20T01:55:39;1.50;99.90
5172;DHT22;2605;49.770;9.868;2022-12-20T01:58:08;1.50;99.90
5172;DHT22;2605;49.770;9.868;2022-12-20T02:00:34;1.60;99.90
5172;DHT22;2605;49.770;9.868;2022-12-20T02:03:04;1.60;99.90
5172;DHT22;2605;49.770;9.868;2022-12-20T02:05:37;1.70;99.90
5172;DHT22;2605;49.770;9.868;2022-12-20T02:08:04;1.70;99.90
5172;DHT22;2605;49.770;9.868;2022-12-20T02:13:41;1.70;99.90
5172;DHT22;2605;49.770;9.868;2022-12-20T02:16:12;1.70;99.90
5172;DHT22;2605;49.770;9.868;2022-12-20T02:18:54;1.70;99.90
5172;DHT22;2605;49.770;9.868;2022-12-20T02:24:17;1.70;99.90
5172;DHT22;2605;49.770;9.868;2022-12-20T02:27:13;1.70;99.90
5172;DHT22;2605;49.770;9.868;2022-12-20T02:30:09;1.70;99.90
5172;DHT22;2605;49.770;9.868;2022-12-20T02:32:43;1.60;99.90
5172;DHT22;2605;49.770;9.868;2022-12-20T02:35:12;1.60;99.90
5172;DHT22;2605;49.770;9.868;2022-12-20T02:37:53;1.60;99.90
5172;DHT22;2605;49.770;9.868;2022-12-20T02:40:23;1.60;99.90
5172;DHT22;2605;49.770;9.868;2022-12-20T02:42:53;1.60;99.90
5172;DHT22;2605;49.770;9.868;2022-12-20T02:45:22;1.70;99.90
5172;DHT22;2605;49.770;9.868;2022-12-20T02:48:06;1.70;99.90
5172;DHT22;2605;49.770;9.868;2022-12-20T02:50:39;1.70;99.90
5172;DHT22;2605;49.770;9.868;2022-12-20T02:53:08;1.70;99.90
5172;DHT22;2605;49.770;9.868;2022-12-20T02:55:49;1.60;99.90
5172;DHT22;2605;49.770;9.868;2022-12-20T02:58:39;1.60;99.90
5172;DHT22;2605;49.770;9.868;2022-12-20T03:01:22;1.50;99.90
5172;DHT22;2605;49.770;9.868;2022-12-20T03:03:50;1.50;99.90
5172;DHT22;2605;49.770;9.868;2022-12-20T03:06:20;1.50;99.90
5172;DHT22;2605;49.770;9.868;2022-12-20T03:08:48;1.60;99.90
5172;DHT22;2605;49.770;9.868;2022-12-20T03:11:14;1.60;99.90
5172;DHT22;2605;49.770;9.868;2022-12-20T03:13:39;1.60;99.90
5172;DHT22;2605;49.770;9.868;2022-12-20T03:16:05;1.60;99.90
5172;DHT22;2605;49.770;9.868;2022-12-20T03:18:31;1.60;99.90
5172;DHT22;2605;49.770;9.868;2022-12-20T03:20:57;1.70;99.90
5172;DHT22;2605;49.770;9.868;2022-12-20T03:23:22;1.70;99.90
5172;DHT22;2605;49.770;9.868;2022-12-20T03:25:48;1.80;99.90
5172;DHT22;2605;49.770;9.868;2022-12-20T03:28:14;1.80;99.90
5172;DHT22;2605;49.770;9.868;2022-12-20T03:30:39;1.90;99.90
5172;DHT22;2605;49.770;9.868;2022-12-20T03:33:05;1.90;99.90
5172;DHT22;2605;49.770;9.868;2022-12-20T03:35:30;1.90;99.90
5172;DHT22;2605;49.770;9.868;2022-12-20T03:37:56;1.80;99.90
5172;DHT22;2605;49.770;9.868;2022-12-20T03:40:22;1.60;99.90
5172;DHT22;2605;49.770;9.868;2022-12-20T03:42:47;1.60;99.90
5172;DHT22;2605;49.770;9.868;2022-12-20T03:45:13;1.60;99.90
5172;DHT22;2605;49.770;9.868;2022-12-20T03:47:38;1.60;99.90
5172;DHT22;2605;49.770;9.868;2022-12-20T03:50:05;1.60;99.90
5172;DHT22;2605;49.770;9.868;2022-12-20T03:52:31;1.70;99.90
5172;DHT22;2605;49.770;9.868;2022-12-20T03:54:57;1.60;99.90
5172;DHT22;2605;49.770;9.868;2022-12-20T03:57:22;1.60;99.90
5172;DHT22;2605;49.770;9.868;2022-12-20T03:59:48;1.60;99.90
5172;DHT22;2605;49.770;9.868;2022-12-20T04:02:14;1.70;99.90
5172;DHT22;2605;49.770;9.868;2022-12-20T04:04:39;1.50;99.90
5172;DHT22;2605;49.770;9.868;2022-12-20T04:07:05;1.60;99.90
5172;DHT22;2605;49.770;9.868;2022-12-20T04:09:31;1.60;99.90
5172;DHT22;2605;49.770;9.868;2022-12-20T04:11:56;1.60;99.90
5172;DHT22;2605;49.770;9.868;2022-12-20T04:14:25;1.60;99.90
5172;DHT22;2605;49.770;9.868;2022-12-20T04:16:50;1.50;99.90
5172;DHT22;2605;49.770;9.868;2022-12-20T04:19:16;1.50;99.90
5172;DHT22;2605;49.770;9.868;2022-12-20T04:21:41;1.50;99.90
5172;DHT22;2605;49.770;9.868;2022-12-20T04:24:07;1.60;99.90
5172;DHT22;2605;49.770;9.868;2022-12-20T04:26:33;1.70;99.90
5172;DHT22;2605;49.770;9.868;2022-12-20T04:28:58;1.80;99.90
5172;DHT22;2605;49.770;9.868;2022-12-20T04:31:24;1.70;99.90
5172;DHT22;2605;49.770;9.868;2022-12-20T04:33:50;1.80;99.90
5172;DHT22;2605;49.770;9.868;2022-12-20T04:36:16;1.90;99.90
5172;DHT22;2605;49.770;9.868;2022-12-20T04:38:41;2.00;99.90
5172;DHT22;2605;49.770;9.868;2022-12-20T04:41:07;2.00;99.90
5172;DHT22;2605;49.770;9.868;2022-12-20T04:43:32;2.10;99.90
5172;DHT22;2605;49.770;9.868;2022-12-20T04:45:58;2.10;99.90
5172;DHT22;2605;49.770;9.868;2022-12-20T04:48:25;2.10;99.90
5172;DHT22;2605;49.770;9.868;2022-12-20T04:50:52;2.10;99.90
5172;DHT22;2605;49.770;9.868;2022-12-20T04:53:18;2.20;99.90
5172;DHT22;2605;49.770;9.868;2022-12-20T04:56:03;2.20;99.90
5172;DHT22;2605;49.770;9.868;2022-12-20T04:58:28;2.10;99.90
5172;DHT22;2605;49.770;9.868;2022-12-20T05:00:54;2.20;99.90
5172;DHT22;2605;49.770;9.868;2022-12-20T05:03:21;2.00;99.90
5172;DHT22;2605;49.770;9.868;2022-12-20T05:05:47;1.90;99.90
5172;DHT22;2605;49.770;9.868;2022-12-20T05:08:13;1.70;99.90
5172;DHT22;2605;49.770;9.868;2022-12-20T05:10:39;1.50;99.90
5172;DHT22;2605;49.770;9.868;2022-12-20T05:13:05;1.20;99.90
5172;DHT22;2605;49.770;9.868;2022-12-20T05:15:31;1.00;99.90
5172;DHT22;2605;49.770;9.868;2022-12-20T05:17:56;1.00;99.90
5172;DHT22;2605;49.770;9.868;2022-12-20T05:20:28;1.00;99.90
5172;DHT22;2605;49.770;9.868;2022-12-20T05:22:54;1.10;99.90
5172;DHT22;2605;49.770;9.868;2022-12-20T05:25:53;1.10;99.90
5172;DHT22;2605;49.770;9.868;2022-12-20T05:28:37;1.20;99.90
5172;DHT22;2605;49.770;9.868;2022-12-20T05:31:02;1.30;99.90
5172;DHT22;2605;49.770;9.868;2022-12-20T05:33:28;1.40;99.90
5172;DHT22;2605;49.770;9.868;2022-12-20T05:35:54;1.40;99.90
5172;DHT22;2605;49.770;9.868;2022-12-20T05:38:20;1.40;99.90
5172;DHT22;2605;49.770;9.868;2022-12-20T05:40:47;1.40;99.90
5172;DHT22;2605;49.770;9.868;2022-12-20T05:43:13;1.50;99.90
5172;DHT22;2605;49.770;9.868;2022-12-20T05:45:40;1.60;99.90
5172;DHT22;2605;49.770;9.868;2022-12-20T05:48:09;1.70;99.90
5172;DHT22;2605;49.770;9.868;2022-12-20T05:50:37;1.60;99.90
5172;DHT22;2605;49.770;9.868;2022-12-20T05:53:03;1.50;99.90
5172;DHT22;2605;49.770;9.868;2022-12-20T05:55:28;1.50;99.90
5172;DHT22;2605;49.770;9.868;2022-12-20T05:57:55;1.60;99.90
5172;DHT22;2605;49.770;9.868;2022-12-20T06:00:20;1.70;99.90
5172;DHT22;2605;49.770;9.868;2022-12-20T06:02:47;1.80;99.90
5172;DHT22;2605;49.770;9.868;2022-12-20T06:05:12;1.80;99.90
5172;DHT22;2605;49.770;9.868;2022-12-20T06:07:39;1.90;99.90
5172;DHT22;2605;49.770;9.868;2022-12-20T06:10:05;1.90;99.90
5172;DHT22;2605;49.770;9.868;2022-12-20T06:12:31;2.00;99.90
5172;DHT22;2605;49.770;9.868;2022-12-20T06:14:57;2.00;99.90
5172;DHT22;2605;49.770;9.868;2022-12-20T06:17:23;1.90;99.90
5172;DHT22;2605;49.770;9.868;2022-12-20T06:19:48;1.50;99.90
5172;DHT22;2605;49.770;9.868;2022-12-20T06:22:14;1.20;99.90
5172;DHT22;2605;49.770;9.868;2022-12-20T06:24:40;1.10;99.90
5172;DHT22;2605;49.770;9.868;2022-12-20T06:27:05;1.00;99.90
5172;DHT22;2605;49.770;9.868;2022-12-20T06:29:34;1.00;99.90
5172;DHT22;2605;49.770;9.868;2022-12-20T06:32:01;1.00;99.90
5172;DHT22;2605;49.770;9.868;2022-12-20T06:34:30;1.10;99.90
5172;DHT22;2605;49.770;9.868;2022-12-20T06:36:55;1.20;99.90
5172;DHT22;2605;49.770;9.868;2022-12-20T06:39:21;1.30;99.90
5172;DHT22;2605;49.770;9.868;2022-12-20T06:41:46;1.30;99.90
5172;DHT22;2605;49.770;9.868;2022-12-20T06:44:12;1.40;99.90
5172;DHT22;2605;49.770;9.868;2022-12-20T06:46:37;1.40;99.90
5172;DHT22;2605;49.770;9.868;2022-12-20T06:49:03;1.50;99.90
5172;DHT22;2605;49.770;9.868;2022-12-20T06:51:28;1.60;99.90
5172;DHT22;2605;49.770;9.868;2022-12-20T06:53:54;1.70;99.90
5172;DHT22;2605;49.770;9.868;2022-12-20T06:56:19;1.90;99.90
5172;DHT22;2605;49.770;9.868;2022-12-20T06:58:45;2.00;99.90
5172;DHT22;2605;49.770;9.868;2022-12-20T07:01:11;2.00;99.90
5172;DHT22;2605;49.770;9.868;2022-12-20T07:03:37;2.00;99.90
5172;DHT22;2605;49.770;9.868;2022-12-20T07:06:02;2.10;99.90
5172;DHT22;2605;49.770;9.868;2022-12-20T07:08:28;2.10;99.90
5172;DHT22;2605;49.770;9.868;2022-12-20T07:10:54;2.10;99.90
5172;DHT22;2605;49.770;9.868;2022-12-20T07:13:20;2.20;99.90
5172;DHT22;2605;49.770;9.868;2022-12-20T07:15:46;2.40;99.90
5172;DHT22;2605;49.770;9.868;2022-12-20T07:18:14;2.30;99.90
5172;DHT22;2605;49.770;9.868;2022-12-20T07:20:40;2.40;99.90
5172;DHT22;2605;49.770;9.868;2022-12-20T07:23:06;2.40;99.90
5172;DHT22;2605;49.770;9.868;2022-12-20T07:25:31;2.50;99.90
5172;DHT22;2605;49.770;9.868;2022-12-20T07:27:56;2.50;99.90
5172;DHT22;2605;49.770;9.868;2022-12-20T07:30:22;2.50;99.90
5172;DHT22;2605;49.770;9.868;2022-12-20T07:32:48;2.50;99.90
5172;DHT22;2605;49.770;9.868;2022-12-20T07:35:14;2.50;99.90
5172;DHT22;2605;49.770;9.868;2022-12-20T07:37:40;2.50;99.90
5172;DHT22;2605;49.770;9.868;2022-12-20T07:40:06;2.50;99.90
5172;DHT22;2605;49.770;9.868;2022-12-20T07:42:32;2.50;99.90
5172;DHT22;2605;49.770;9.868;2022-12-20T07:44:57;2.60;99.90
5172;DHT22;2605;49.770;9.868;2022-12-20T07:47:23;2.50;99.90
5172;DHT22;2605;49.770;9.868;2022-12-20T07:49:48;2.60;99.90
5172;DHT22;2605;49.770;9.868;2022-12-20T07:52:16;2.50;99.90
5172;DHT22;2605;49.770;9.868;2022-12-20T07:54:47;2.60;99.90
5172;DHT22;2605;49.770;9.868;2022-12-20T07:57:17;2.50;99.90
5172;DHT22;2605;49.770;9.868;2022-12-20T07:59:48;2.60;99.90
5172;DHT22;2605;49.770;9.868;2022-12-20T08:02:25;2.50;99.90
5172;DHT22;2605;49.770;9.868;2022-12-20T08:04:54;2.60;99.90
5172;DHT22;2605;49.770;9.868;2022-12-20T08:07:19;2.70;99.90
5172;DHT22;2605;49.770;9.868;2022-12-20T08:09:45;2.70;99.90
5172;DHT22;2605;49.770;9.868;2022-12-20T08:12:13;2.70;99.90
5172;DHT22;2605;49.770;9.868;2022-12-20T08:14:41;2.70;99.90
5172;DHT22;2605;49.770;9.868;2022-12-20T08:17:06;2.80;99.90
5172;DHT22;2605;49.770;9.868;2022-12-20T08:19:32;2.80;99.90
5172;DHT22;2605;49.770;9.868;2022-12-20T08:21:57;2.90;99.90
5172;DHT22;2605;49.770;9.868;2022-12-20T08:24:23;3.10;99.90
5172;DHT22;2605;49.770;9.868;2022-12-20T08:26:48;3.00;99.90
5172;DHT22;2605;49.770;9.868;2022-12-20T08:29:14;3.20;99.90
5172;DHT22;2605;49.770;9.868;2022-12-20T08:31:40;3.10;99.90
5172;DHT22;2605;49.770;9.868;2022-12-20T08:34:09;3.20;99.90
5172;DHT22;2605;49.770;9.868;2022-12-20T08:36:35;3.20;99.90
5172;DHT22;2605;49.770;9.868;2022-12-20T08:39:02;3.20;99.90
5172;DHT22;2605;49.770;9.868;2022-12-20T08:41:28;3.20;99.90
5172;DHT22;2605;49.770;9.868;2022-12-20T08:43:54;3.20;99.90
5172;DHT22;2605;49.770;9.868;2022-12-20T08:46:19;3.20;99.90
5172;DHT22;2605;49.770;9.868;2022-12-20T08:48:45;3.20;99.90
5172;DHT22;2605;49.770;9.868;2022-12-20T08:51:11;3.20;99.90
5172;DHT22;2605;49.770;9.868;2022-12-20T08:53:37;3.20;99.90
5172;DHT22;2605;49.770;9.868;2022-12-20T08:56:14;3.10;99.90
5172;DHT22;2605;49.770;9.868;2022-12-20T08:58:41;3.10;99.90
5172;DHT22;2605;49.770;9.868;2022-12-20T09:01:12;3.20;99.90
5172;DHT22;2605;49.770;9.868;2022-12-20T09:03:39;3.20;99.90
5172;DHT22;2605;49.770;9.868;2022-12-20T09:06:13;3.30;99.90
5172;DHT22;2605;49.770;9.868;2022-12-20T09:08:40;3.30;99.90
5172;DHT22;2605;49.770;9.868;2022-12-20T09:11:14;3.30;99.90
5172;DHT22;2605;49.770;9.868;2022-12-20T09:13:41;3.40;99.90
5172;DHT22;2605;49.770;9.868;2022-12-20T09:16:08;3.40;99.90
5172;DHT22;2605;49.770;9.868;2022-12-20T09:18:34;3.60;99.90
5172;DHT22;2605;49.770;9.868;2022-12-20T09:21:01;3.80;99.90
5172;DHT22;2605;49.770;9.868;2022-12-20T09:23:27;3.80;99.90
5172;DHT22;2605;49.770;9.868;2022-12-20T09:25:53;3.90;99.90
5172;DHT22;2605;49.770;9.868;2022-12-20T09:28:18;4.00;99.90
5172;DHT22;2605;49.770;9.868;2022-12-20T09:30:44;4.10;99.90
5172;DHT22;2605;49.770;9.868;2022-12-20T09:33:10;4.20;99.90
5172;DHT22;2605;49.770;9.868;2022-12-20T09:35:35;4.40;99.90
5172;DHT22;2605;49.770;9.868;2022-12-20T09:38:01;4.50;99.90
5172;DHT22;2605;49.770;9.868;2022-12-20T09:40:30;4.40;99.90
5172;DHT22;2605;49.770;9.868;2022-12-20T09:42:57;4.00;99.90
5172;DHT22;2605;49.770;9.868;2022-12-20T09:45:33;4.00;99.90
5172;DHT22;2605;49.770;9.868;2022-12-20T09:48:00;4.30;99.90
5172;DHT22;2605;49.770;9.868;2022-12-20T09:53:43;4.70;99.90
5172;DHT22;2605;49.770;9.868;2022-12-20T09:56:21;4.90;99.90
5172;DHT22;2605;49.770;9.868;2022-12-20T10:01:29;5.10;99.90
5172;DHT22;2605;49.770;9.868;2022-12-20T10:03:56;5.20;99.90
5172;DHT22;2605;49.770;9.868;2022-12-20T10:15:20;5.80;99.90
5172;DHT22;2605;49.770;9.868;2022-12-20T10:18:13;5.90;99.90
5172;DHT22;2605;49.770;9.868;2022-12-20T10:23:20;5.90;99.90
5172;DHT22;2605;49.770;9.868;2022-12-20T10:25:53;5.80;99.90
5172;DHT22;2605;49.770;9.868;2022-12-20T10:28:25;5.60;99.90
5172;DHT22;2605;49.770;9.868;2022-12-20T10:30:51;5.50;99.90
5172;DHT22;2605;49.770;9.868;2022-12-20T10:33:21;5.50;99.90
5172;DHT22;2605;49.770;9.868;2022-12-20T10:35:50;5.50;99.90
5172;DHT22;2605;49.770;9.868;2022-12-20T10:38:16;5.50;99.90
5172;DHT22;2605;49.770;9.868;2022-12-20T10:40:49;5.60;99.90
5172;DHT22;2605;49.770;9.868;2022-12-20T10:43:23;5.60;99.90
5172;DHT22;2605;49.770;9.868;2022-12-20T10:46:07;5.60;99.90
5172;DHT22;2605;49.770;9.868;2022-12-20T10:48:34;5.80;99.90
5172;DHT22;2605;49.770;9.868;2022-12-20T10:51:15;5.80;99.90
5172;DHT22;2605;49.770;9.868;2022-12-20T10:53:56;5.90;99.90
5172;DHT22;2605;49.770;9.868;2022-12-20T10:56:25;6.00;99.90
5172;DHT22;2605;49.770;9.868;2022-12-20T10:58:55;6.10;99.90
5172;DHT22;2605;49.770;9.868;2022-12-20T11:01:23;6.10;99.90
5172;DHT22;2605;49.770;9.868;2022-12-20T11:03:55;6.10;99.90
5172;DHT22;2605;49.770;9.868;2022-12-20T11:06:26;6.00;99.90
5172;DHT22;2605;49.770;9.868;2022-12-20T11:08:53;6.00;99.90
5172;DHT22;2605;49.770;9.868;2022-12-20T11:11:23;5.90;99.90
5172;DHT22;2605;49.770;9.868;2022-12-20T11:13:50;5.80;99.90
5172;DHT22;2605;49.770;9.868;2022-12-20T11:16:36;5.70;99.90
5172;DHT22;2605;49.770;9.868;2022-12-20T11:27:38;5.70;99.90
5172;DHT22;2605;49.770;9.868;2022-12-20T11:30:16;5.90;99.90
5172;DHT22;2605;49.770;9.868;2022-12-20T11:41:12;5.40;99.90
5172;DHT22;2605;49.770;9.868;2022-12-20T11:44:11;5.40;99.90
5172;DHT22;2605;49.770;9.868;2022-12-20T11:46:51;5.50;99.90
5172;DHT22;2605;49.770;9.868;2022-12-20T11:51:48;5.60;99.90
5172;DHT22;2605;49.770;9.868;2022-12-20T11:54:31;5.60;99.90
5172;DHT22;2605;49.770;9.868;2022-12-20T11:57:03;5.70;99.90
5172;DHT22;2605;49.770;9.868;2022-12-20T11:59:39;5.80;99.90
5172;DHT22;2605;49.770;9.868;2022-12-20T12:02:27;5.90;99.90
5172;DHT22;2605;49.770;9.868;2022-12-20T12:05:00;5.90;99.90
5172;DHT22;2605;49.770;9.868;2022-12-20T12:07:32;5.90;99.90
5172;DHT22;2605;49.770;9.868;2022-12-20T12:10:21;5.90;99.90
5172;DHT22;2605;49.770;9.868;2022-12-20T12:13:05;5.80;99.90
5172;DHT22;2605;49.770;9.868;2022-12-20T12:18:21;5.70;99.90
5172;DHT22;2605;49.770;9.868;2022-12-20T12:23:40;5.50;99.90
5172;DHT22;2605;49.770;9.868;2022-12-20T12:26:25;5.40;99.90
5172;DHT22;2605;49.770;9.868;2022-12-20T12:28:57;5.40;99.90
5172;DHT22;2605;49.770;9.868;2022-12-20T12:31:43;5.30;99.90
5172;DHT22;2605;49.770;9.868;2022-12-20T12:34:29;5.20;99.90
5172;DHT22;2605;49.770;9.868;2022-12-20T12:37:25;5.20;99.90
5172;DHT22;2605;49.770;9.868;2022-12-20T12:40:22;5.20;99.90
5172;DHT22;2605;49.770;9.868;2022-12-20T12:45:51;5.10;99.90
5172;DHT22;2605;49.770;9.868;2022-12-20T12:50:52;5.10;99.90
5172;DHT22;2605;49.770;9.868;2022-12-20T12:53:28;5.20;99.90
5172;DHT22;2605;49.770;9.868;2022-12-20T12:55:57;5.20;99.90
5172;DHT22;2605;49.770;9.868;2022-12-20T13:00:51;5.30;99.90
5172;DHT22;2605;49.770;9.868;2022-12-20T13:03:40;5.20;99.90
5172;DHT22;2605;49.770;9.868;2022-12-20T13:16:45;5.00;99.90
5172;DHT22;2605;49.770;9.868;2022-12-20T13:21:55;4.90;99.90
5172;DHT22;2605;49.770;9.868;2022-12-20T13:37:56;4.70;99.90
5172;DHT22;2605;49.770;9.868;2022-12-20T13:43:05;4.80;99.90
5172;DHT22;2605;49.770;9.868;2022-12-20T13:45:32;4.80;99.90
5172;DHT22;2605;49.770;9.868;2022-12-20T13:48:02;4.80;99.90
5172;DHT22;2605;49.770;9.868;2022-12-20T13:50:38;4.80;99.90
5172;DHT22;2605;49.770;9.868;2022-12-20T13:53:05;4.80;99.90
5172;DHT22;2605;49.770;9.868;2022-12-20T13:55:38;4.90;99.90
5172;DHT22;2605;49.770;9.868;2022-12-20T13:58:12;4.80;99.90
5172;DHT22;2605;49.770;9.868;2022-12-20T14:00:38;4.60;99.90
5172;DHT22;2605;49.770;9.868;2022-12-20T14:03:13;4.50;99.90
5172;DHT22;2605;49.770;9.868;2022-12-20T14:05:42;4.60;99.90
5172;DHT22;2605;49.770;9.868;2022-12-20T14:08:13;4.50;99.90
5172;DHT22;2605;49.770;9.868;2022-12-20T14:10:39;4.60;99.90
5172;DHT22;2605;49.770;9.868;2022-12-20T14:13:25;4.40;99.90
5172;DHT22;2605;49.770;9.868;2022-12-20T14:15:51;4.50;99.90
5172;DHT22;2605;49.770;9.868;2022-12-20T14:18:24;4.60;99.90
5172;DHT22;2605;49.770;9.868;2022-12-20T14:20:53;4.70;99.90
5172;DHT22;2605;49.770;9.868;2022-12-20T14:23:22;4.70;99.90
5172;DHT22;2605;49.770;9.868;2022-12-20T14:25:55;4.80;99.90
5172;DHT22;2605;49.770;9.868;2022-12-20T14:28:28;4.70;99.90
5172;DHT22;2605;49.770;9.868;2022-12-20T14:30:56;4.60;99.90
5172;DHT22;2605;49.770;9.868;2022-12-20T14:33:35;4.60;99.90
5172;DHT22;2605;49.770;9.868;2022-12-20T14:38:42;4.60;99.90
5172;DHT22;2605;49.770;9.868;2022-12-20T14:41:38;4.40;99.90
5172;DHT22;2605;49.770;9.868;2022-12-20T14:44:15;4.50;99.90
5172;DHT22;2605;49.770;9.868;2022-12-20T14:46:50;4.40;99.90
5172;DHT22;2605;49.770;9.868;2022-12-20T14:49:17;4.40;99.90
5172;DHT22;2605;49.770;9.868;2022-12-20T14:51:45;4.30;99.90
5172;DHT22;2605;49.770;9.868;2022-12-20T14:54:20;4.30;99.90
5172;DHT22;2605;49.770;9.868;2022-12-20T14:56:48;4.30;99.90
5172;DHT22;2605;49.770;9.868;2022-12-20T14:59:21;4.30;99.90
5172;DHT22;2605;49.770;9.868;2022-12-20T15:01:49;4.30;99.90
5172;DHT22;2605;49.770;9.868;2022-12-20T15:04:30;4.30;99.90
5172;DHT22;2605;49.770;9.868;2022-12-20T15:06:58;4.30;99.90
5172;DHT22;2605;49.770;9.868;2022-12-20T15:09:24;4.20;99.90
5172;DHT22;2605;49.770;9.868;2022-12-20T15:11:50;4.20;99.90
5172;DHT22;2605;49.770;9.868;2022-12-20T15:14:34;4.20;99.90
5172;DHT22;2605;49.770;9.868;2022-12-20T15:17:02;4.10;99.90
5172;DHT22;2605;49.770;9.868;2022-12-20T15:19:28;4.10;99.90
5172;DHT22;2605;49.770;9.868;2022-12-20T15:21:55;4.00;99.90
5172;DHT22;2605;49.770;9.868;2022-12-20T15:24:24;3.90;99.90
5172;DHT22;2605;49.770;9.868;2022-12-20T15:26:51;3.80;99.90
5172;DHT22;2605;49.770;9.868;2022-12-20T15:29:18;3.70;99.90
5172;DHT22;2605;49.770;9.868;2022-12-20T15:31:45;3.80;99.90
5172;DHT22;2605;49.770;9.868;2022-12-20T15:34:35;3.70;99.90
5172;DHT22;2605;49.770;9.868;2022-12-20T15:37:02;3.70;99.90
5172;DHT22;2605;49.770;9.868;2022-12-20T15:39:29;3.60;99.90
5172;DHT22;2605;49.770;9.868;2022-12-20T15:41:55;3.60;99.90
5172;DHT22;2605;49.770;9.868;2022-12-20T15:44:23;3.70;99.90
5172;DHT22;2605;49.770;9.868;2022-12-20T15:46:50;3.70;99.90
5172;DHT22;2605;49.770;9.868;2022-12-20T15:49:23;3.60;99.90
5172;DHT22;2605;49.770;9.868;2022-12-20T15:51:51;3.60;99.90
5172;DHT22;2605;49.770;9.868;2022-12-20T15:54:32;3.70;99.90
5172;DHT22;2605;49.770;9.868;2022-12-20T15:56:59;3.60;99.90
5172;DHT22;2605;49.770;9.868;2022-12-20T15:59:27;3.60;99.90
5172;DHT22;2605;49.770;9.868;2022-12-20T16:01:53;3.60;99.90
5172;DHT22;2605;49.770;9.868;2022-12-20T16:04:19;3.50;99.90
5172;DHT22;2605;49.770;9.868;2022-12-20T16:06:47;3.50;99.90
5172;DHT22;2605;49.770;9.868;2022-12-20T16:09:13;3.50;99.90
5172;DHT22;2605;49.770;9.868;2022-12-20T16:11:39;3.40;99.90
5172;DHT22;2605;49.770;9.868;2022-12-20T16:14:05;3.40;99.90
5172;DHT22;2605;49.770;9.868;2022-12-20T16:16:33;3.30;99.90
5172;DHT22;2605;49.770;9.868;2022-12-20T16:18:59;3.40;99.90
5172;DHT22;2605;49.770;9.868;2022-12-20T16:21:29;3.40;99.90
5172;DHT22;2605;49.770;9.868;2022-12-20T16:23:55;3.40;99.90
5172;DHT22;2605;49.770;9.868;2022-12-20T16:26:23;3.40;99.90
5172;DHT22;2605;49.770;9.868;2022-12-20T16:28:50;3.20;99.90
5172;DHT22;2605;49.770;9.868;2022-12-20T16:31:20;3.20;99.90
5172;DHT22;2605;49.770;9.868;2022-12-20T16:33:47;3.20;99.90
5172;DHT22;2605;49.770;9.868;2022-12-20T16:36:12;3.10;99.90
5172;DHT22;2605;49.770;9.868;2022-12-20T16:38:38;2.90;99.90
5172;DHT22;2605;49.770;9.868;2022-12-20T16:41:15;2.60;99.90
5172;DHT22;2605;49.770;9.868;2022-12-20T16:43:42;2.50;99.90
5172;DHT22;2605;49.770;9.868;2022-12-20T16:46:13;2.50;99.90
5172;DHT22;2605;49.770;9.868;2022-12-20T16:48:39;2.50;99.90
5172;DHT22;2605;49.770;9.868;2022-12-20T16:51:30;2.50;99.90
5172;DHT22;2605;49.770;9.868;2022-12-20T16:54:02;2.60;99.90
5172;DHT22;2605;49.770;9.868;2022-12-20T16:56:28;2.60;99.90
5172;DHT22;2605;49.770;9.868;2022-12-20T16:58:55;2.60;99.90
5172;DHT22;2605;49.770;9.868;2022-12-20T17:01:26;2.70;99.90
5172;DHT22;2605;49.770;9.868;2022-12-20T17:03:52;2.80;99.90
5172;DHT22;2605;49.770;9.868;2022-12-20T17:06:19;2.90;99.90
5172;DHT22;2605;49.770;9.868;2022-12-20T17:08:44;2.90;99.90
5172;DHT22;2605;49.770;9.868;2022-12-20T17:11:18;3.00;99.90
5172;DHT22;2605;49.770;9.868;2022-12-20T17:13:45;3.00;99.90
5172;DHT22;2605;49.770;9.868;2022-12-20T17:16:12;3.10;99.90
5172;DHT22;2605;49.770;9.868;2022-12-20T17:18:42;3.10;99.90
5172;DHT22;2605;49.770;9.868;2022-12-20T17:21:19;3.20;99.90
5172;DHT22;2605;49.770;9.868;2022-12-20T17:23:46;3.20;99.90
5172;DHT22;2605;49.770;9.868;2022-12-20T17:26:18;3.30;99.90
5172;DHT22;2605;49.770;9.868;2022-12-20T17:28:45;3.30;99.90
5172;DHT22;2605;49.770;9.868;2022-12-20T17:31:35;3.40;99.90
5172;DHT22;2605;49.770;9.868;2022-12-20T17:34:04;3.50;99.90
5172;DHT22;2605;49.770;9.868;2022-12-20T17:36:31;3.50;99.90
5172;DHT22;2605;49.770;9.868;2022-12-20T17:38:56;3.50;99.90
5172;DHT22;2605;49.770;9.868;2022-12-20T17:41:24;3.50;99.90
5172;DHT22;2605;49.770;9.868;2022-12-20T17:43:51;3.50;99.90
5172;DHT22;2605;49.770;9.868;2022-12-20T17:46:17;3.50;99.90
5172;DHT22;2605;49.770;9.868;2022-12-20T17:48:43;3.50;99.90
5172;DHT22;2605;49.770;9.868;2022-12-20T17:51:13;3.50;99.90
5172;DHT22;2605;49.770;9.868;2022-12-20T17:53:40;3.50;99.90
5172;DHT22;2605;49.770;9.868;2022-12-20T17:56:10;3.50;99.90
5172;DHT22;2605;49.770;9.868;2022-12-20T17:58:36;3.60;99.90